createdAt,value
2019-02-24T00:00:07.961Z,33.1
2019-02-24T00:00:57.612Z,33.1
2019-02-24T00:01:47.473Z,33
2019-02-24T00:02:37.987Z,32.9
2019-02-24T00:03:28.052Z,32.9
2019-02-24T00:04:18.347Z,32.9
2019-02-24T00:05:07.617Z,32.8
2019-02-24T00:05:57.943Z,32.8
2019-02-24T00:06:47.965Z,32.7
2019-02-24T00:07:38.837Z,32.6
2019-02-24T00:08:27.822Z,32.6
2019-02-24T00:09:18.985Z,32.5
2019-02-24T00:10:08.773Z,32.5
2019-02-24T00:10:58.852Z,32.4
2019-02-24T00:11:49.427Z,32.4
2019-02-24T00:12:39.439Z,32.3
2019-02-24T00:13:29.522Z,32.3
2019-02-24T00:14:18.486Z,32.3
2019-02-24T00:15:09.102Z,32.2
2019-02-24T00:15:59.124Z,32.1
2019-02-24T00:16:49.465Z,32.1
2019-02-24T00:17:38.952Z,32
2019-02-24T00:18:28.999Z,31.9
2019-02-24T00:19:18.806Z,31.9
2019-02-24T00:20:09.410Z,31.9
2019-02-24T00:21:00.057Z,31.8
2019-02-24T00:21:49.544Z,31.8
2019-02-24T00:22:39.842Z,31.7
2019-02-24T00:23:29.922Z,31.7
2019-02-24T00:24:18.851Z,31.6
2019-02-24T00:25:09.549Z,31.5
2019-02-24T00:25:59.314Z,31.4
2019-02-24T00:26:49.859Z,31.4
2019-02-24T00:27:39.759Z,31.3
2019-02-24T00:28:29.495Z,31.3
2019-02-24T00:29:19.862Z,31.3
2019-02-24T00:30:10.189Z,31.2
2019-02-24T00:30:59.116Z,31.1
2019-02-24T00:31:50.083Z,31.1
2019-02-24T00:32:41.639Z,31
2019-02-24T00:33:30.177Z,30.9
2019-02-24T00:34:20.156Z,30.9
2019-02-24T00:35:09.981Z,30.9
2019-02-24T00:36:00.338Z,30.8
2019-02-24T00:36:49.506Z,30.8
2019-02-24T00:37:40.643Z,30.7
2019-02-24T00:38:30.659Z,30.7
2019-02-24T00:39:20.521Z,30.6
2019-02-24T00:40:11.086Z,30.6
2019-02-24T00:41:00.826Z,30.5
2019-02-24T00:41:50.918Z,30.5
2019-02-24T00:42:41.277Z,30.4
2019-02-24T00:43:30.758Z,30.4
2019-02-24T00:44:21.110Z,30.3
2019-02-24T00:45:10.335Z,30.3
2019-02-24T00:46:01.165Z,30.2
2019-02-24T00:46:50.796Z,30.2
2019-02-24T00:47:41.610Z,30.1
2019-02-24T00:48:31.940Z,30.1
2019-02-24T00:49:21.713Z,30.1
2019-02-24T00:50:11.476Z,30.1
2019-02-24T00:51:01.797Z,30
2019-02-24T00:51:51.376Z,29.9
2019-02-24T00:52:41.362Z,29.9
2019-02-24T00:53:31.700Z,29.8
2019-02-24T00:54:21.296Z,29.8
2019-02-24T00:55:11.360Z,29.7
2019-02-24T00:56:01.926Z,29.6
2019-02-24T00:56:51.628Z,29.6
2019-02-24T00:57:40.950Z,29.6
2019-02-24T00:58:31.245Z,29.6
2019-02-24T00:59:21.895Z,29.5
2019-02-24T01:00:11.652Z,29.4
2019-02-24T01:01:01.175Z,29.3
2019-02-24T01:01:52.030Z,28.9
2019-02-24T01:02:42.377Z,28.6
2019-02-24T01:03:31.867Z,28.3
2019-02-24T01:04:21.957Z,27.9
2019-02-24T01:05:12.012Z,27.6
2019-02-24T01:06:02.045Z,27.2
2019-02-24T01:06:52.424Z,26.9
2019-02-24T01:07:41.697Z,26.6
2019-02-24T01:08:31.387Z,26.3
2019-02-24T01:09:22.019Z,25.9
2019-02-24T01:10:12.089Z,25.6
2019-02-24T01:11:02.722Z,25.4
2019-02-24T01:11:52.451Z,25.1
2019-02-24T01:12:42.260Z,24.9
2019-02-24T01:13:32.577Z,24.6
2019-02-24T01:14:22.682Z,24.4
2019-02-24T01:15:12.716Z,24.2
2019-02-24T01:16:03.285Z,24
2019-02-24T01:16:52.557Z,23.8
2019-02-24T01:17:43.139Z,23.6
2019-02-24T01:18:32.919Z,23.4
2019-02-24T01:19:22.496Z,23.3
2019-02-24T01:20:12.763Z,23.1
2019-02-24T01:21:03.441Z,22.9
2019-02-24T01:21:52.874Z,22.8
2019-02-24T01:22:43.493Z,22.6
2019-02-24T01:23:33.614Z,22.4
2019-02-24T01:24:22.768Z,22.3
2019-02-24T01:25:13.991Z,22.2
2019-02-24T01:26:03.153Z,22
2019-02-24T01:26:53.971Z,21.9
2019-02-24T01:27:44.343Z,21.8
2019-02-24T01:28:35.388Z,21.6
2019-02-24T01:29:24.153Z,21.4
2019-02-24T01:30:14.554Z,21.3
2019-02-24T01:31:03.280Z,21.2
2019-02-24T01:31:53.556Z,21.1
2019-02-24T01:32:44.645Z,20.9
2019-02-24T01:33:34.176Z,20.8
2019-02-24T01:34:24.811Z,20.7
2019-02-24T01:35:14.610Z,20.6
2019-02-24T01:36:03.528Z,20.4
2019-02-24T01:36:55.220Z,20.3
2019-02-24T01:37:44.753Z,20.2
2019-02-24T01:38:34.827Z,20.1
2019-02-24T01:39:24.263Z,20
2019-02-24T01:40:14.695Z,19.9
2019-02-24T01:41:04.371Z,19.8
2019-02-24T01:41:54.558Z,19.7
2019-02-24T01:42:45.063Z,19.6
2019-02-24T01:43:35.100Z,19.4
2019-02-24T01:44:24.440Z,19.4
2019-02-24T01:45:15.031Z,19.3
2019-02-24T01:46:04.748Z,19.1
2019-02-24T01:46:55.138Z,19.1
2019-02-24T01:47:44.668Z,18.9
2019-02-24T01:48:35.707Z,18.9
2019-02-24T01:49:25.074Z,18.8
2019-02-24T01:51:05.905Z,18.6
2019-02-24T01:51:55.225Z,18.5
2019-02-24T01:52:45.304Z,18.4
2019-02-24T01:53:36.062Z,18.4
2019-02-24T01:54:26.199Z,18.3
2019-02-24T01:55:15.357Z,18.2
2019-02-24T01:56:05.159Z,18.1
2019-02-24T01:56:55.828Z,18.1
2019-02-24T01:57:46.072Z,18
2019-02-24T01:58:44.948Z,17.9
2019-02-24T01:59:26.892Z,17.8
2019-02-24T02:00:16.004Z,17.8
2019-02-24T02:01:06.332Z,17.7
2019-02-24T02:01:56.638Z,17.6
2019-02-24T02:02:46.169Z,17.6
2019-02-24T02:03:36.277Z,17.5
2019-02-24T02:04:26.002Z,17.4
2019-02-24T02:05:16.062Z,17.4
2019-02-24T02:06:06.122Z,17.3
2019-02-24T02:06:56.417Z,17.2
2019-02-24T02:07:47.386Z,17.1
2019-02-24T02:08:37.142Z,17.1
2019-02-24T02:09:27.021Z,17.1
2019-02-24T02:10:17.526Z,16.9
2019-02-24T02:11:06.551Z,16.9
2019-02-24T02:11:56.856Z,16.9
2019-02-24T02:12:47.394Z,16.8
2019-02-24T02:13:37.496Z,16.7
2019-02-24T02:14:26.693Z,16.7
2019-02-24T02:15:17.558Z,16.6
2019-02-24T02:16:07.900Z,16.6
2019-02-24T02:16:57.711Z,16.5
2019-02-24T02:17:46.988Z,16.4
2019-02-24T02:18:37.560Z,16.4
2019-02-24T02:19:27.900Z,16.4
2019-02-24T02:20:17.890Z,16.3
2019-02-24T02:21:07.980Z,16.3
2019-02-24T02:21:58.093Z,16.3
2019-02-24T02:22:48.118Z,16.3
2019-02-24T02:23:37.013Z,16.2
2019-02-24T02:24:27.925Z,16.1
2019-02-24T02:25:17.229Z,16.1
2019-02-24T02:26:07.018Z,16.1
2019-02-24T02:26:56.863Z,16
2019-02-24T02:27:47.440Z,15.9
2019-02-24T02:28:47.014Z,15.9
2019-02-24T02:29:26.995Z,15.8
2019-02-24T02:30:17.377Z,15.8
2019-02-24T02:31:08.523Z,15.8
2019-02-24T02:31:58.013Z,15.8
2019-02-24T02:32:48.288Z,15.7
2019-02-24T02:33:38.846Z,15.6
2019-02-24T02:34:28.345Z,15.6
2019-02-24T02:35:18.482Z,15.6
2019-02-24T02:36:08.508Z,15.6
2019-02-24T02:36:59.134Z,15.5
2019-02-24T02:37:48.863Z,15.5
2019-02-24T02:38:38.365Z,15.4
2019-02-24T02:39:29.052Z,15.4
2019-02-24T02:40:19.335Z,15.4
2019-02-24T02:41:09.130Z,15.3
2019-02-24T02:41:59.497Z,15.3
2019-02-24T02:42:48.952Z,15.3
2019-02-24T02:43:39.585Z,15.3
2019-02-24T02:44:29.607Z,15.2
2019-02-24T02:45:19.134Z,15.2
2019-02-24T02:46:09.478Z,15.1
2019-02-24T02:47:00.099Z,15.1
2019-02-24T02:47:49.896Z,15.1
2019-02-24T02:48:39.932Z,15.1
2019-02-24T02:49:29.684Z,15.1
2019-02-24T02:50:19.885Z,15
2019-02-24T02:51:09.883Z,15
2019-02-24T02:51:59.604Z,14.9
2019-02-24T02:52:50.247Z,14.9
2019-02-24T02:53:40.072Z,14.9
2019-02-24T02:54:29.518Z,14.9
2019-02-24T02:55:19.791Z,14.8
2019-02-24T02:56:10.270Z,14.8
2019-02-24T02:57:00.508Z,14.8
2019-02-24T02:57:50.790Z,14.8
2019-02-24T02:58:39.510Z,14.8
2019-02-24T02:59:30.931Z,14.7
2019-02-24T03:00:19.929Z,14.7
2019-02-24T03:01:09.893Z,14.6
2019-02-24T03:02:00.534Z,14.6
2019-02-24T03:02:50.297Z,14.6
2019-02-24T03:03:39.551Z,14.6
2019-02-24T03:04:30.696Z,14.6
2019-02-24T03:08:01.887Z,14.4
2019-02-24T03:08:52.504Z,14.4
2019-02-24T03:09:42.816Z,14.4
2019-02-24T03:10:33.561Z,14.4
2019-02-24T03:11:24.310Z,14.4
2019-02-24T03:12:13.479Z,14.3
2019-02-24T03:13:04.094Z,14.3
2019-02-24T03:13:53.618Z,14.3
2019-02-24T03:14:43.915Z,14.3
2019-02-24T03:15:32.555Z,14.3
2019-02-24T03:16:26.752Z,14.2
2019-02-24T03:17:13.557Z,14.2
2019-02-24T03:18:04.671Z,14.2
2019-02-24T03:18:54.507Z,14.1
2019-02-24T03:19:43.406Z,14.1
2019-02-24T03:20:34.275Z,14.1
2019-02-24T03:21:24.738Z,14.1
2019-02-24T03:22:14.403Z,14.1
2019-02-24T03:23:03.902Z,14.1
2019-02-24T03:23:54.292Z,14.1
2019-02-24T03:24:43.834Z,14
2019-02-24T03:25:34.675Z,14
2019-02-24T03:26:24.742Z,14
2019-02-24T03:27:14.520Z,14
2019-02-24T03:28:04.661Z,13.9
2019-02-24T03:29:04.560Z,13.9
2019-02-24T03:29:44.727Z,13.9
2019-02-24T03:30:34.932Z,13.9
2019-02-24T03:31:24.555Z,13.9
2019-02-24T03:32:15.282Z,13.9
2019-02-24T03:33:05.148Z,13.9
2019-02-24T03:33:55.535Z,13.8
2019-02-24T03:34:45.783Z,13.8
2019-02-24T03:35:35.052Z,13.8
2019-02-24T03:36:24.924Z,13.8
2019-02-24T03:37:15.437Z,13.8
2019-02-24T03:38:05.495Z,13.8
2019-02-24T03:38:55.540Z,13.7
2019-02-24T03:39:45.613Z,13.7
2019-02-24T03:40:35.373Z,13.6
2019-02-24T03:41:25.956Z,13.6
2019-02-24T03:42:16.319Z,13.6
2019-02-24T03:43:05.797Z,13.6
2019-02-24T03:43:56.279Z,13.6
2019-02-24T03:44:45.996Z,13.6
2019-02-24T03:45:35.991Z,13.6
2019-02-24T03:46:26.053Z,13.6
2019-02-24T03:47:15.815Z,13.5
2019-02-24T03:48:06.153Z,13.5
2019-02-24T03:48:56.788Z,13.5
2019-02-24T03:49:46.266Z,13.5
2019-02-24T03:50:35.788Z,13.4
2019-02-24T03:51:26.389Z,13.4
2019-02-24T03:52:16.693Z,13.4
2019-02-24T03:53:06.603Z,13.4
2019-02-24T03:53:56.590Z,13.4
2019-02-24T03:54:46.681Z,13.4
2019-02-24T03:55:36.955Z,13.4
2019-02-24T03:56:27.303Z,13.3
2019-02-24T03:57:16.791Z,13.3
2019-02-24T03:58:06.903Z,13.3
2019-02-24T03:58:56.902Z,13.3
2019-02-24T03:59:47.235Z,13.3
2019-02-24T04:00:37.045Z,13.3
2019-02-24T04:01:26.828Z,13.3
2019-02-24T04:02:17.661Z,13.3
2019-02-24T04:03:07.224Z,13.2
2019-02-24T04:03:57.264Z,13.2
2019-02-24T04:04:47.002Z,13.2
2019-02-24T04:05:37.628Z,13.2
2019-02-24T04:06:27.463Z,13.2
2019-02-24T04:07:17.180Z,13.2
2019-02-24T04:08:07.366Z,13.1
2019-02-24T04:08:57.918Z,13.1
2019-02-24T04:09:47.963Z,13.1
2019-02-24T04:10:37.155Z,13.1
2019-02-24T04:11:27.483Z,13.1
2019-02-24T04:12:17.825Z,13.1
2019-02-24T04:13:07.887Z,13.1
2019-02-24T04:13:57.154Z,13.1
2019-02-24T04:14:48.019Z,13.1
2019-02-24T04:15:37.745Z,13.1
2019-02-24T04:16:27.495Z,13
2019-02-24T04:17:17.560Z,13
2019-02-24T04:18:08.513Z,13
2019-02-24T04:18:57.624Z,13
2019-02-24T04:19:48.402Z,13
2019-02-24T04:20:38.371Z,12.9
2019-02-24T04:21:28.707Z,12.9
2019-02-24T04:22:18.775Z,12.9
2019-02-24T04:23:07.691Z,12.9
2019-02-24T04:23:58.876Z,12.9
2019-02-24T04:24:48.644Z,12.9
2019-02-24T04:25:38.174Z,12.9
2019-02-24T04:26:28.502Z,12.9
2019-02-24T04:27:20.895Z,12.9
2019-02-24T04:28:08.636Z,12.9
2019-02-24T04:28:59.500Z,12.9
2019-02-24T04:29:48.994Z,12.8
2019-02-24T04:30:38.394Z,12.8
2019-02-24T04:31:29.469Z,12.8
2019-02-24T04:32:19.424Z,12.8
2019-02-24T04:33:09.492Z,12.8
2019-02-24T04:33:59.282Z,12.8
2019-02-24T04:34:49.076Z,12.8
2019-02-24T04:35:39.197Z,12.8
2019-02-24T04:36:29.463Z,12.8
2019-02-24T04:37:19.197Z,12.8
2019-02-24T04:38:09.562Z,12.8
2019-02-24T04:38:58.806Z,12.8
2019-02-24T04:39:48.846Z,12.8
2019-02-24T04:40:39.721Z,12.7
2019-02-24T04:41:29.322Z,12.7
2019-02-24T04:42:20.195Z,12.7
2019-02-24T04:43:10.135Z,12.7
2019-02-24T04:44:00.243Z,12.7
2019-02-24T04:44:50.284Z,12.7
2019-02-24T04:45:40.033Z,12.6
2019-02-24T04:46:29.045Z,12.6
2019-02-24T04:47:20.463Z,12.6
2019-02-24T04:48:09.490Z,12.6
2019-02-24T04:48:59.838Z,12.6
2019-02-24T04:49:49.873Z,12.6
2019-02-24T04:50:40.013Z,12.6
2019-02-24T04:51:30.038Z,12.6
2019-02-24T04:52:19.739Z,12.6
2019-02-24T04:53:10.161Z,12.6
2019-02-24T04:53:59.576Z,12.6
2019-02-24T04:54:50.258Z,12.6
2019-02-24T04:55:41.307Z,12.6
2019-02-24T04:56:30.865Z,12.6
2019-02-24T04:57:20.861Z,12.6
2019-02-24T04:58:10.660Z,12.5
2019-02-24T04:59:00.973Z,12.6
2019-02-24T04:59:51.341Z,12.5
2019-02-24T05:00:41.067Z,12.5
2019-02-24T05:01:31.669Z,12.5
2019-02-24T05:02:21.485Z,12.5
2019-02-24T05:03:11.563Z,12.5
2019-02-24T05:04:01.322Z,12.4
2019-02-24T05:04:50.891Z,12.4
2019-02-24T05:05:41.467Z,12.4
2019-02-24T05:06:31.005Z,12.4
2019-02-24T05:07:20.507Z,12.4
2019-02-24T05:08:11.403Z,12.4
2019-02-24T05:09:01.512Z,12.4
2019-02-24T05:09:50.934Z,12.4
2019-02-24T05:10:41.307Z,12.4
2019-02-24T05:11:31.349Z,12.4
2019-02-24T05:12:21.382Z,12.4
2019-02-24T05:13:11.301Z,12.4
2019-02-24T05:14:01.240Z,12.4
2019-02-24T05:14:51.861Z,12.3
2019-02-24T05:15:41.060Z,12.3
2019-02-24T05:16:31.727Z,12.3
2019-02-24T05:17:22.333Z,12.3
2019-02-24T05:18:11.521Z,12.3
2019-02-24T05:19:02.389Z,12.3
2019-02-24T05:19:52.973Z,12.3
2019-02-24T05:20:42.974Z,12.3
2019-02-24T05:21:33.080Z,12.3
2019-02-24T05:22:22.575Z,12.3
2019-02-24T05:23:12.641Z,12.3
2019-02-24T05:24:02.685Z,12.3
2019-02-24T05:24:52.462Z,12.4
2019-02-24T05:25:42.570Z,12.4
2019-02-24T05:26:32.867Z,12.4
2019-02-24T05:27:22.320Z,12.5
2019-02-24T05:28:12.974Z,12.6
2019-02-24T05:29:03.084Z,12.8
2019-02-24T05:29:56.213Z,13.1
2019-02-24T05:30:42.934Z,13.6
2019-02-24T05:31:33.439Z,14
2019-02-24T05:32:23.021Z,14.6
2019-02-24T05:33:13.347Z,15
2019-02-24T05:34:03.097Z,15.4
2019-02-24T05:34:54.070Z,15.8
2019-02-24T05:35:43.479Z,16.3
2019-02-24T05:36:36.277Z,16.6
2019-02-24T05:37:23.902Z,16.9
2019-02-24T05:38:13.396Z,17.4
2019-02-24T05:39:03.745Z,17.8
2019-02-24T05:39:53.764Z,18.4
2019-02-24T05:40:43.831Z,18.9
2019-02-24T05:41:34.137Z,19.6
2019-02-24T05:42:24.190Z,27.1
2019-02-24T05:43:14.565Z,32.3
2019-02-24T05:44:04.057Z,36.1
2019-02-24T05:44:54.413Z,38.9
2019-02-24T05:45:43.961Z,41
2019-02-24T05:46:34.213Z,42.3
2019-02-24T05:47:23.811Z,42.8
2019-02-24T05:48:14.904Z,42.3
2019-02-24T05:49:04.648Z,41.2
2019-02-24T05:49:54.445Z,39.9
2019-02-24T05:50:44.234Z,38.9
2019-02-24T05:51:34.046Z,37.9
2019-02-24T05:52:24.611Z,37.1
2019-02-24T05:53:13.612Z,36.3
2019-02-24T05:54:04.198Z,35.6
2019-02-24T05:54:56.973Z,34.9
2019-02-24T05:55:45.076Z,34.4
2019-02-24T05:56:35.439Z,34.2
2019-02-24T05:57:24.675Z,34.1
2019-02-24T05:58:14.583Z,34
2019-02-24T05:59:05.316Z,34.1
2019-02-24T06:00:05.202Z,34.3
2019-02-24T06:00:44.881Z,34.4
2019-02-24T06:01:35.263Z,34.6
2019-02-24T06:02:25.588Z,34.8
2019-02-24T06:03:14.908Z,34.9
2019-02-24T06:06:03.523Z,35.4
2019-02-24T06:06:52.280Z,35.5
2019-02-24T06:07:43.467Z,35.6
2019-02-24T06:08:33.097Z,35.6
2019-02-24T06:09:22.922Z,35.7
2019-02-24T06:10:13.203Z,35.8
2019-02-24T06:11:03.598Z,35.8
2019-02-24T06:11:53.650Z,35.8
2019-02-24T06:12:44.224Z,35.8
2019-02-24T06:13:33.166Z,35.8
2019-02-24T06:14:22.945Z,35.8
2019-02-24T06:15:13.387Z,35.8
2019-02-24T06:16:03.085Z,35.7
2019-02-24T06:16:52.828Z,35.7
2019-02-24T06:17:44.049Z,35.6
2019-02-24T06:18:33.324Z,35.6
2019-02-24T06:19:23.690Z,35.6
2019-02-24T06:20:13.420Z,35.6
2019-02-24T06:21:03.444Z,35.6
2019-02-24T06:21:53.712Z,35.6
2019-02-24T06:22:43.252Z,35.5
2019-02-24T06:23:34.964Z,35.5
2019-02-24T06:24:23.934Z,35.4
2019-02-24T06:25:14.014Z,35.4
2019-02-24T06:26:04.887Z,35.4
2019-02-24T06:26:54.957Z,35.4
2019-02-24T06:27:44.930Z,35.4
2019-02-24T06:28:34.791Z,35.3
2019-02-24T06:29:24.507Z,35.3
2019-02-24T06:30:15.449Z,35.3
2019-02-24T06:31:04.939Z,35.3
2019-02-24T06:31:54.400Z,35.2
2019-02-24T06:32:44.505Z,35.2
2019-02-24T06:33:35.612Z,35.1
2019-02-24T06:34:24.571Z,35.1
2019-02-24T06:35:14.914Z,35.1
2019-02-24T06:36:04.172Z,35.1
2019-02-24T06:36:54.506Z,35
2019-02-24T06:37:44.813Z,35
2019-02-24T06:38:35.663Z,35
2019-02-24T06:39:25.199Z,34.9
2019-02-24T06:40:14.769Z,34.9
2019-02-24T06:41:06.975Z,34.9
2019-02-24T06:41:55.333Z,34.8
2019-02-24T06:42:44.849Z,34.8
2019-02-24T06:43:33.868Z,34.8
2019-02-24T06:44:25.537Z,34.7
2019-02-24T06:45:14.769Z,34.6
2019-02-24T06:46:04.541Z,34.6
2019-02-24T06:46:55.439Z,34.6
2019-02-24T06:47:46.414Z,34.5
2019-02-24T06:48:36.180Z,34.4
2019-02-24T06:49:25.386Z,34.4
2019-02-24T06:50:15.979Z,34.4
2019-02-24T06:51:05.785Z,34.3
2019-02-24T06:51:56.123Z,34.3
2019-02-24T06:52:46.596Z,34.3
2019-02-24T06:53:35.678Z,34.2
2019-02-24T06:54:25.910Z,34.1
2019-02-24T06:55:15.480Z,34.1
2019-02-24T06:56:05.835Z,34.1
2019-02-24T06:56:56.062Z,34.1
2019-02-24T06:57:46.158Z,33.9
2019-02-24T06:58:35.162Z,33.9
2019-02-24T06:59:25.551Z,33.9
2019-02-24T07:00:23.400Z,33.9
2019-02-24T07:01:05.952Z,33.9
2019-02-24T07:01:55.100Z,33.9
2019-02-24T07:02:46.537Z,33.8
2019-02-24T07:03:36.418Z,33.8
2019-02-24T07:06:02.240Z,33.8
2019-02-24T07:06:51.549Z,33.8
2019-02-24T07:07:42.403Z,33.8
2019-02-24T07:08:31.361Z,33.8
2019-02-24T07:09:24.235Z,33.9
2019-02-24T07:10:12.607Z,33.9
2019-02-24T07:11:01.810Z,34
2019-02-24T07:11:51.910Z,34.2
2019-02-24T07:12:42.017Z,34.4
2019-02-24T07:13:33.009Z,34.8
2019-02-24T07:14:21.776Z,35.2
2019-02-24T07:15:12.202Z,36.5
2019-02-24T07:16:02.199Z,39.4
2019-02-24T07:16:52.662Z,41.5
2019-02-24T07:17:43.814Z,43.1
2019-02-24T07:18:33.857Z,44.3
2019-02-24T07:19:23.064Z,44.8
2019-02-24T07:20:14.770Z,44.7
2019-02-24T07:21:04.550Z,43.7
2019-02-24T07:21:54.617Z,42.3
2019-02-24T07:22:44.024Z,40.8
2019-02-24T07:23:34.934Z,39.6
2019-02-24T07:24:24.761Z,38.6
2019-02-24T07:25:14.026Z,37.7
2019-02-24T07:26:04.293Z,36.9
2019-02-24T07:26:54.611Z,36.3
2019-02-24T07:27:44.399Z,35.8
2019-02-24T07:28:34.691Z,35.5
2019-02-24T07:29:25.346Z,35.6
2019-02-24T07:30:23.899Z,35.8
2019-02-24T07:31:05.246Z,36.1
2019-02-24T07:31:54.961Z,36.4
2019-02-24T07:32:45.300Z,38
2019-02-24T07:33:35.694Z,40
2019-02-24T07:34:24.952Z,41.4
2019-02-24T07:35:15.772Z,42.4
2019-02-24T07:36:05.083Z,43
2019-02-24T07:36:55.656Z,43.3
2019-02-24T07:37:44.566Z,43.1
2019-02-24T07:38:35.693Z,42.3
2019-02-24T07:39:26.073Z,41.3
2019-02-24T07:40:16.084Z,40.3
2019-02-24T07:41:05.593Z,39.5
2019-02-24T07:41:55.610Z,38.7
2019-02-24T07:42:46.240Z,38
2019-02-24T07:43:35.038Z,37.3
2019-02-24T07:44:25.343Z,36.8
2019-02-24T07:45:15.869Z,36.5
2019-02-24T07:46:04.842Z,36.5
2019-02-24T07:46:54.370Z,36.7
2019-02-24T07:47:45.738Z,37
2019-02-24T07:48:35.817Z,39.2
2019-02-24T07:49:25.625Z,40.7
2019-02-24T07:50:15.732Z,41.6
2019-02-24T07:51:05.455Z,42.3
2019-02-24T07:51:56.652Z,42.6
2019-02-24T07:52:45.870Z,42.6
2019-02-24T07:53:36.392Z,42.2
2019-02-24T07:54:26.756Z,41.4
2019-02-24T07:55:16.814Z,40.7
2019-02-24T07:56:05.822Z,40
2019-02-24T07:56:56.705Z,39.3
2019-02-24T07:57:46.822Z,38.6
2019-02-24T07:58:36.817Z,38.1
2019-02-24T07:59:26.044Z,37.6
2019-02-24T08:00:15.550Z,37.3
2019-02-24T08:01:06.459Z,37.3
2019-02-24T08:01:56.292Z,38.7
2019-02-24T08:02:46.640Z,40.3
2019-02-24T08:03:36.897Z,41.3
2019-02-24T08:04:26.954Z,41.9
2019-02-24T08:05:31.926Z,42.4
2019-02-24T08:06:07.322Z,42.5
2019-02-24T08:06:57.634Z,42.4
2019-02-24T08:07:47.386Z,41.8
2019-02-24T08:08:37.424Z,41.2
2019-02-24T08:09:26.999Z,40.6
2019-02-24T08:10:17.535Z,40
2019-02-24T08:11:07.866Z,39.4
2019-02-24T08:11:57.969Z,38.8
2019-02-24T08:12:47.713Z,38.3
2019-02-24T08:13:37.456Z,37.9
2019-02-24T08:14:28.130Z,39.3
2019-02-24T08:15:18.199Z,40.5
2019-02-24T08:16:08.259Z,41.2
2019-02-24T08:16:57.783Z,41.6
2019-02-24T08:17:47.811Z,41.8
2019-02-24T08:18:38.119Z,41.8
2019-02-24T08:19:30.016Z,41.6
2019-02-24T08:20:18.533Z,41.2
2019-02-24T08:21:10.117Z,40.8
2019-02-24T08:21:58.626Z,40.3
2019-02-24T08:22:48.658Z,40.7
2019-02-24T08:23:38.535Z,41.6
2019-02-24T08:24:30.675Z,41.9
2019-02-24T08:25:18.258Z,41.9
2019-02-24T08:26:08.935Z,41.8
2019-02-24T08:26:59.007Z,41.4
2019-02-24T08:27:49.363Z,41.1
2019-02-24T08:28:38.836Z,40.7
2019-02-24T08:29:28.353Z,40.2
2019-02-24T08:30:19.237Z,39.7
2019-02-24T08:31:09.255Z,40.9
2019-02-24T08:31:58.425Z,41.6
2019-02-24T08:32:49.381Z,42
2019-02-24T08:33:39.370Z,42
2019-02-24T08:34:29.172Z,41.9
2019-02-24T08:35:19.295Z,41.6
2019-02-24T08:36:09.313Z,41.2
2019-02-24T08:36:59.168Z,40.8
2019-02-24T08:37:49.125Z,40.3
2019-02-24T08:38:41.635Z,39.7
2019-02-24T08:39:29.575Z,39.3
2019-02-24T08:40:19.756Z,40.5
2019-02-24T08:41:09.414Z,41.1
2019-02-24T08:41:59.722Z,41.4
2019-02-24T08:42:50.340Z,41.4
2019-02-24T08:43:39.816Z,41.4
2019-02-24T08:44:32.456Z,41.1
2019-02-24T08:45:19.658Z,40.8
2019-02-24T08:46:09.738Z,40.3
2019-02-24T08:46:59.595Z,39.9
2019-02-24T08:47:49.479Z,40.7
2019-02-24T08:48:39.439Z,41.4
2019-02-24T08:49:29.972Z,41.8
2019-02-24T08:50:20.247Z,41.9
2019-02-24T08:51:10.619Z,41.8
2019-02-24T08:52:01.014Z,41.6
2019-02-24T08:52:50.704Z,41.2
2019-02-24T08:53:40.518Z,40.8
2019-02-24T08:54:30.816Z,40.3
2019-02-24T08:55:20.726Z,39.9
2019-02-24T08:56:10.547Z,41
2019-02-24T08:57:03.184Z,41.5
2019-02-24T08:57:51.031Z,41.6
2019-02-24T08:58:41.479Z,41.3
2019-02-24T08:59:30.944Z,40.9
2019-02-24T09:00:21.302Z,40.5
2019-02-24T09:01:11.274Z,40.1
2019-02-24T09:02:01.634Z,39.5
2019-02-24T09:02:53.132Z,38.9
2019-02-24T09:03:40.146Z,38.3
2019-02-24T09:04:31.527Z,37.9
2019-02-24T09:05:20.306Z,37.4
2019-02-24T09:06:11.889Z,37.1
2019-02-24T09:07:01.711Z,36.9
2019-02-24T09:07:52.029Z,36.8
2019-02-24T09:08:40.738Z,36.8
2019-02-24T09:09:31.548Z,36.9
2019-02-24T09:10:22.158Z,37.1
2019-02-24T09:11:12.316Z,37.2
2019-02-24T09:12:01.074Z,37.3
2019-02-24T09:12:51.793Z,37.3
2019-02-24T09:13:41.888Z,37.4
2019-02-24T09:14:32.508Z,37.4
2019-02-24T09:15:22.172Z,37.3
2019-02-24T09:16:12.428Z,37.1
2019-02-24T09:17:02.376Z,37.1
2019-02-24T09:17:52.233Z,37.1
2019-02-24T09:18:42.498Z,37.2
2019-02-24T09:19:32.605Z,37.3
2019-02-24T09:20:22.735Z,37.5
2019-02-24T09:21:12.162Z,37.8
2019-02-24T09:22:02.264Z,39.6
2019-02-24T09:22:52.831Z,40.8
2019-02-24T09:23:42.525Z,41.6
2019-02-24T09:24:30.970Z,42.1
2019-02-24T09:25:22.188Z,42.3
2019-02-24T09:26:12.712Z,42.1
2019-02-24T09:27:03.040Z,41.7
2019-02-24T09:27:53.374Z,40.8
2019-02-24T09:28:42.855Z,40
2019-02-24T09:29:31.943Z,39.3
2019-02-24T09:30:22.478Z,38.6
2019-02-24T09:31:12.303Z,37.9
2019-02-24T09:32:02.035Z,37.4
2019-02-24T09:32:52.922Z,36.9
2019-02-24T09:33:43.814Z,36.7
2019-02-24T09:34:33.847Z,36.7
2019-02-24T09:35:22.629Z,38.5
2019-02-24T09:36:13.088Z,39.9
2019-02-24T09:37:03.142Z,40.8
2019-02-24T09:37:53.537Z,41.3
2019-02-24T09:38:43.615Z,41.6
2019-02-24T09:39:33.572Z,41.7
2019-02-24T09:40:23.629Z,41.5
2019-02-24T09:41:13.727Z,41.2
2019-02-24T09:42:03.912Z,40.8
2019-02-24T09:42:53.536Z,40.2
2019-02-24T09:43:44.144Z,41.1
2019-02-24T09:44:33.459Z,41.4
2019-02-24T09:45:24.554Z,41.4
2019-02-24T09:46:14.638Z,41.3
2019-02-24T09:47:04.649Z,40.9
2019-02-24T09:47:56.820Z,40.6
2019-02-24T09:48:44.514Z,40.1
2019-02-24T09:49:34.656Z,39.6
2019-02-24T09:50:24.861Z,40.1
2019-02-24T09:51:14.676Z,41.3
2019-02-24T09:52:04.455Z,41.9
2019-02-24T09:52:53.478Z,42.3
2019-02-24T09:53:45.171Z,42.3
2019-02-24T09:54:35.159Z,42.2
2019-02-24T09:55:25.228Z,41.8
2019-02-24T09:56:15.266Z,41.3
2019-02-24T09:57:04.496Z,40.7
2019-02-24T09:57:55.193Z,40.1
2019-02-24T09:58:45.455Z,39.5
2019-02-24T09:59:34.678Z,38.9
2019-02-24T10:00:27.766Z,38.9
2019-02-24T10:01:20.888Z,40.4
2019-02-24T10:02:05.656Z,41.3
2019-02-24T10:02:57.448Z,41.7
2019-02-24T10:03:44.673Z,41.9
2019-02-24T10:04:35.568Z,42
2019-02-24T10:07:03.383Z,41.2
2019-02-24T10:07:52.276Z,40.5
2019-02-24T10:08:43.723Z,39.9
2019-02-24T10:09:33.485Z,39.3
2019-02-24T10:10:23.279Z,38.8
2019-02-24T10:11:15.458Z,39.7
2019-02-24T10:12:03.737Z,40.4
2019-02-24T10:12:54.120Z,40.7
2019-02-24T10:13:43.332Z,40.6
2019-02-24T10:14:33.615Z,40.4
2019-02-24T10:15:23.975Z,40.1
2019-02-24T10:16:14.222Z,39.7
2019-02-24T10:17:03.515Z,39.2
2019-02-24T10:17:53.563Z,38.6
2019-02-24T10:18:43.840Z,38.1
2019-02-24T10:19:35.072Z,37.6
2019-02-24T10:20:24.523Z,37.1
2019-02-24T10:21:13.894Z,36.8
2019-02-24T10:22:03.574Z,36.7
2019-02-24T10:22:54.420Z,36.7
2019-02-24T10:23:43.924Z,36.7
2019-02-24T10:24:34.289Z,36.6
2019-02-24T10:25:24.594Z,36.7
2019-02-24T10:26:13.777Z,36.7
2019-02-24T10:27:04.954Z,36.8
2019-02-24T10:27:54.741Z,37
2019-02-24T10:28:44.594Z,37.2
2019-02-24T10:29:34.857Z,37.4
2019-02-24T10:30:24.929Z,37.5
2019-02-24T10:31:23.629Z,37.6
2019-02-24T10:32:04.139Z,37.8
2019-02-24T10:32:55.167Z,37.8
2019-02-24T10:33:44.908Z,37.9
2019-02-24T10:34:34.634Z,37.9
2019-02-24T10:35:24.154Z,37.9
2019-02-24T10:36:15.068Z,38
2019-02-24T10:37:05.394Z,38.1
2019-02-24T10:37:55.423Z,38.1
2019-02-24T10:38:45.486Z,38.1
2019-02-24T10:39:39.755Z,38.1
2019-02-24T10:40:25.141Z,38.1
2019-02-24T10:41:15.384Z,38.1
2019-02-24T10:42:06.039Z,38.1
2019-02-24T10:42:54.926Z,38.1
2019-02-24T10:43:45.572Z,38.1
2019-02-24T10:44:35.918Z,38.1
2019-02-24T10:45:25.671Z,38.1
2019-02-24T10:46:18.212Z,38.1
2019-02-24T10:47:08.657Z,38.1
2019-02-24T10:47:55.225Z,38.1
2019-02-24T10:48:45.679Z,38.1
2019-02-24T10:49:36.247Z,38.1
2019-02-24T10:50:26.005Z,38
2019-02-24T10:51:15.793Z,37.9
2019-02-24T10:52:05.633Z,37.9
2019-02-24T10:52:56.868Z,37.8
2019-02-24T10:53:46.495Z,37.8
2019-02-24T10:54:36.342Z,37.8
2019-02-24T10:55:26.936Z,37.8
2019-02-24T10:56:16.703Z,37.8
2019-02-24T10:57:08.587Z,37.8
2019-02-24T10:57:56.819Z,37.8
2019-02-24T10:58:46.595Z,37.8
2019-02-24T10:59:37.233Z,37.8
2019-02-24T11:00:26.347Z,37.8
2019-02-24T11:01:17.022Z,37.6
2019-02-24T11:02:06.852Z,37.6
2019-02-24T11:02:57.127Z,37.6
2019-02-24T11:03:47.189Z,37.6
2019-02-24T11:04:37.283Z,37.5
2019-02-24T11:05:27.365Z,37.5
2019-02-24T11:06:16.830Z,37.5
2019-02-24T11:07:06.887Z,37.4
2019-02-24T11:07:57.200Z,37.4
2019-02-24T11:08:47.598Z,37.4
2019-02-24T11:09:36.990Z,37.4
2019-02-24T11:10:27.947Z,37.4
2019-02-24T11:11:17.702Z,37.4
2019-02-24T11:12:10.104Z,37.4
2019-02-24T11:12:57.514Z,37.3
2019-02-24T11:13:47.903Z,37.3
2019-02-24T11:14:37.908Z,37.3
2019-02-24T11:15:26.764Z,37.2
2019-02-24T11:16:17.423Z,37.2
2019-02-24T11:17:21.671Z,37.1